createdAt,value
2022-12-13T00:04:37.021Z,99875.00
2022-12-13T00:10:39.287Z,99886.00
2022-12-13T00:16:45.907Z,99891.00
2022-12-13T00:22:48.093Z,99885.00
2022-12-13T00:28:51.643Z,99890.00
2022-12-13T00:34:54.145Z,99880.00
2022-12-13T00:40:56.257Z,99879.00
2022-12-13T00:46:58.612Z,99888.00
2022-12-13T00:53:01.946Z,99885.00
2022-12-13T00:59:05.024Z,99892.00
2022-12-13T01:05:07.735Z,99895.00
2022-12-13T01:11:10.755Z,99902.00
2022-12-13T01:17:13.139Z,99892.00
2022-12-13T01:23:15.278Z,99893.00
2022-12-13T01:29:18.368Z,99896.00
2022-12-13T01:35:20.755Z,99895.00
2022-12-13T01:41:27.139Z,99884.00
2022-12-13T01:47:50.445Z,99884.00
2022-12-13T01:53:53.937Z,99884.00
2022-12-13T01:59:56.482Z,99883.00
2022-12-13T02:06:13.382Z,99884.00
2022-12-13T02:12:15.875Z,99887.00
2022-12-13T02:18:48.079Z,99898.00
2022-12-13T02:25:00.511Z,99894.00
2022-12-13T02:31:12.242Z,99900.00
2022-12-13T02:37:27.927Z,99890.00
2022-12-13T02:43:37.333Z,99894.00
2022-12-13T02:49:51.956Z,99901.00
2022-12-13T02:55:54.484Z,99909.00
2022-12-13T03:02:21.701Z,99916.00
2022-12-13T03:08:56.070Z,99933.00
2022-12-13T03:15:19.476Z,99930.00
2022-12-13T03:21:21.786Z,99946.00
2022-12-13T03:27:23.955Z,99944.00
2022-12-13T03:33:26.263Z,99959.00
2022-12-13T03:39:28.594Z,99963.00
2022-12-13T03:45:30.998Z,99977.00
2022-12-13T03:51:33.707Z,99978.00
2022-12-13T03:57:36.578Z,99974.00
2022-12-13T04:03:40.845Z,99968.00
2022-12-13T04:09:43.438Z,99968.00
2022-12-13T04:15:49.566Z,99979.00
2022-12-13T04:21:55.075Z,99986.00
2022-12-13T04:27:57.267Z,100000.00
2022-12-13T04:33:59.747Z,99994.00
2022-12-13T04:40:02.131Z,99998.00
2022-12-13T04:46:04.653Z,100003.00
2022-12-13T04:52:06.921Z,100003.00
2022-12-13T04:58:09.017Z,100003.00
2022-12-13T05:04:11.472Z,100007.00
2022-12-13T05:10:34.327Z,100015.00
2022-12-13T05:16:36.304Z,100015.00
2022-12-13T05:22:38.664Z,100024.00
2022-12-13T05:28:40.922Z,100022.00
2022-12-13T05:34:43.182Z,100032.00
2022-12-13T05:40:45.805Z,100030.00
2022-12-13T05:46:48.450Z,100059.00
2022-12-13T05:52:50.755Z,100064.00
2022-12-13T05:58:54.499Z,100076.00
2022-12-13T06:04:57.541Z,100080.00
2022-12-13T06:11:10.648Z,100085.00
2022-12-13T06:17:14.269Z,100113.00
2022-12-13T06:23:23.855Z,100111.00
2022-12-13T06:29:26.801Z,100114.00
2022-12-13T06:35:30.491Z,100130.00
2022-12-13T06:41:35.257Z,100129.00
2022-12-13T06:47:37.712Z,100141.00
2022-12-13T06:53:40.660Z,100150.00
2022-12-13T06:59:43.144Z,100159.00
2022-12-13T07:05:46.005Z,100156.00
2022-12-13T07:11:51.881Z,100104.00
2022-12-13T07:17:54.663Z,100163.00
2022-12-13T07:23:56.954Z,100166.00
2022-12-13T07:29:59.344Z,100167.00
2022-12-13T07:36:14.357Z,100174.00
2022-12-13T07:42:16.800Z,100107.00
2022-12-13T07:48:19.711Z,100116.00
2022-12-13T07:54:22.068Z,100185.00
2022-12-13T08:00:25.261Z,100222.00
2022-12-13T08:06:27.638Z,100174.00
2022-12-13T08:12:29.804Z,100254.00
2022-12-13T08:18:33.755Z,100209.00
2022-12-13T08:24:36.121Z,100262.00
2022-12-13T08:30:38.523Z,100179.00
2022-12-13T08:36:41.140Z,100280.00
2022-12-13T08:42:43.627Z,100285.00
2022-12-13T08:48:46.101Z,100286.00
2022-12-13T08:54:48.710Z,100276.00
2022-12-13T09:00:51.406Z,100280.00
2022-12-13T09:06:53.702Z,100284.00
2022-12-13T09:13:01.743Z,100280.00
2022-12-13T09:19:24.666Z,100286.00
2022-12-13T09:25:27.879Z,100264.00
2022-12-13T09:31:41.341Z,100258.00
2022-12-13T09:37:46.067Z,100258.00
2022-12-13T09:44:01.967Z,100257.00
2022-12-13T09:50:15.990Z,100246.00
2022-12-13T09:56:20.949Z,100240.00
2022-12-13T10:02:26.056Z,100229.00
2022-12-13T10:08:35.923Z,100232.00
2022-12-13T10:14:46.469Z,100225.00
2022-12-13T10:20:50.892Z,100235.00
2022-12-13T10:26:54.327Z,100222.00
2022-12-13T10:32:59.421Z,100220.00
2022-12-13T10:39:02.372Z,100214.00
2022-12-13T10:45:23.545Z,100209.00
2022-12-13T10:51:26.541Z,100199.00
2022-12-13T10:57:30.001Z,100200.00
2022-12-13T11:03:34.411Z,100196.00
2022-12-13T11:09:38.169Z,100194.00
2022-12-13T11:15:41.889Z,100193.00
2022-12-13T11:21:47.171Z,100199.00
2022-12-13T11:28:26.459Z,100187.00
2022-12-13T11:34:51.150Z,100183.00
2022-12-13T11:41:04.357Z,100184.00
2022-12-13T11:47:13.512Z,100198.00
2022-12-13T11:53:19.455Z,100181.00
2022-12-13T11:59:39.518Z,100182.00
2022-12-13T12:05:48.133Z,100190.00
2022-12-13T12:12:13.542Z,100182.00
2022-12-13T12:18:26.249Z,100188.00
2022-12-13T12:24:50.198Z,100202.00
2022-12-13T12:31:13.854Z,100196.00
2022-12-13T12:37:18.997Z,100199.00
2022-12-13T12:43:21.697Z,100208.00
2022-12-13T12:49:51.673Z,100217.00
2022-12-13T12:56:10.434Z,100208.00
2022-12-13T13:02:50.987Z,100222.00
2022-12-13T13:09:04.350Z,100217.00
2022-12-13T13:15:31.513Z,100233.00
2022-12-13T13:21:40.691Z,100239.00
2022-12-13T13:27:45.522Z,100251.00
2022-12-13T13:33:51.586Z,100247.00
2022-12-13T13:40:02.525Z,100251.00
2022-12-13T13:46:13.759Z,100256.00
2022-12-13T13:52:27.550Z,100270.00
2022-12-13T13:58:54.406Z,100266.00
2022-12-13T14:05:20.919Z,100267.00
2022-12-13T14:11:54.197Z,100266.00
2022-12-13T14:18:21.352Z,100278.00
2022-12-13T14:24:40.036Z,100280.00
2022-12-13T14:30:57.123Z,100292.00
2022-12-13T14:37:04.369Z,100302.00
2022-12-13T14:43:06.783Z,100306.00
2022-12-13T14:49:12.082Z,100316.00
2022-12-13T14:55:23.193Z,100322.00
2022-12-13T15:01:32.249Z,100332.00
2022-12-13T15:07:41.679Z,100341.00
2022-12-13T15:13:47.325Z,100353.00
2022-12-13T15:19:49.607Z,100354.00
2022-12-13T15:26:01.240Z,100372.00
2022-12-13T15:32:04.613Z,100377.00
2022-12-13T15:38:28.873Z,100391.00
2022-12-13T15:44:41.629Z,100405.00
2022-12-13T15:50:49.016Z,100405.00
2022-12-13T15:57:13.765Z,100414.00
2022-12-13T16:03:19.990Z,100418.00
2022-12-13T16:09:25.131Z,100430.00
2022-12-13T16:15:30.467Z,100435.00
2022-12-13T16:21:34.618Z,100435.00
2022-12-13T16:27:37.863Z,100434.00
2022-12-13T16:33:40.210Z,100429.00
2022-12-13T16:39:42.255Z,100440.00
2022-12-13T16:45:48.675Z,100443.00
2022-12-13T16:51:51.720Z,100436.00
2022-12-13T16:57:57.881Z,100444.00
2022-12-13T17:04:01.667Z,100434.00
2022-12-13T17:10:07.011Z,100427.00
2022-12-13T17:16:09.337Z,100424.00
2022-12-13T17:22:11.727Z,100418.00
2022-12-13T17:28:13.703Z,100422.00
2022-12-13T17:34:16.915Z,100420.00
2022-12-13T17:40:19.704Z,100417.00
2022-12-13T17:46:21.846Z,100425.00
2022-12-13T17:52:24.289Z,100414.00
2022-12-13T17:58:27.807Z,100402.00
2022-12-13T18:04:30.769Z,100415.00
2022-12-13T18:10:32.860Z,100410.00
2022-12-13T18:16:38.712Z,100408.00
2022-12-13T18:22:43.135Z,100420.00
2022-12-13T18:28:49.329Z,100420.00
2022-12-13T18:34:51.259Z,100420.00
2022-12-13T18:40:57.382Z,100430.00
2022-12-13T18:46:59.706Z,100438.00
2022-12-13T18:53:01.957Z,100435.00
2022-12-13T18:59:04.418Z,100446.00
2022-12-13T19:05:06.519Z,100456.00
2022-12-13T19:11:09.083Z,100465.00
2022-12-13T19:17:11.400Z,100462.00
2022-12-13T19:23:13.437Z,100461.00
2022-12-13T19:29:16.169Z,100463.00
2022-12-13T19:35:18.566Z,100472.00
2022-12-13T19:41:20.669Z,100467.00
2022-12-13T19:47:23.415Z,100460.00
2022-12-13T19:53:25.671Z,100491.00
2022-12-13T19:59:28.209Z,100479.00
2022-12-13T20:05:30.420Z,100495.00
2022-12-13T20:11:32.673Z,100493.00
2022-12-13T20:17:36.054Z,100495.00
2022-12-13T20:23:38.189Z,100494.00
2022-12-13T20:29:40.365Z,100510.00
2022-12-13T20:36:15.156Z,100502.00
2022-12-13T20:42:08.472Z,100499.00
2022-12-13T20:48:10.766Z,100506.00
2022-12-13T20:54:12.860Z,100534.00
2022-12-13T21:00:15.788Z,100537.00
2022-12-13T21:06:17.907Z,100520.00
2022-12-13T21:12:20.457Z,100518.00
2022-12-13T21:18:22.637Z,100508.00
2022-12-13T21:24:26.464Z,100496.00
2022-12-13T21:30:28.591Z,100495.00
2022-12-13T21:36:48.323Z,100523.00
2022-12-13T21:42:50.405Z,100518.00
2022-12-13T21:48:53.767Z,100512.00
2022-12-13T21:55:15.154Z,100529.00
2022-12-13T22:01:18.713Z,100515.00
2022-12-13T22:07:24.066Z,100524.00
2022-12-13T22:13:26.326Z,100510.00
2022-12-13T22:19:28.315Z,100510.00
2022-12-13T22:25:30.642Z,100514.00
2022-12-13T22:31:35.980Z,100511.00
2022-12-13T22:37:39.846Z,100502.00
2022-12-13T22:43:42.938Z,100501.00
2022-12-13T22:49:45.238Z,100490.00
2022-12-13T22:55:51.288Z,100481.00
2022-12-13T23:02:01.378Z,100485.00
2022-12-13T23:08:04.722Z,100486.00
2022-12-13T23:14:09.547Z,100495.00
2022-12-13T23:20:11.878Z,100509.00
2022-12-13T23:26:18.621Z,100521.00
2022-12-13T23:32:20.681Z,100548.00
2022-12-13T23:38:22.759Z,100527.00
2022-12-13T23:44:25.148Z,100533.00
2022-12-13T23:50:27.039Z,100542.00
2022-12-13T23:56:29.755Z,100532.00
